createdAt,value
2024-03-26T00:01:28.706Z,64.81
2024-03-26T00:03:56.195Z,64.86
2024-03-26T00:06:23.654Z,64.92
2024-03-26T00:08:51.061Z,64.91
2024-03-26T00:11:18.576Z,64.88
2024-03-26T00:13:46.025Z,64.97
2024-03-26T00:16:13.640Z,64.92
2024-03-26T00:18:41.152Z,65.02
2024-03-26T00:21:08.656Z,65.06
2024-03-26T00:23:36.267Z,64.82
2024-03-26T00:26:03.700Z,64.62
2024-03-26T00:28:31.178Z,64.70
2024-03-26T00:30:58.636Z,64.63
2024-03-26T00:33:26.069Z,64.71
2024-03-26T00:35:53.656Z,64.56
2024-03-26T00:38:21.063Z,64.58
2024-03-26T00:40:48.475Z,64.66
2024-03-26T00:43:15.925Z,64.59
2024-03-26T00:45:43.381Z,64.41
2024-03-26T00:48:11.198Z,64.42
2024-03-26T00:50:38.682Z,64.46
2024-03-26T00:53:06.167Z,64.33
2024-03-26T00:55:33.672Z,64.46
2024-03-26T00:58:01.097Z,64.45
2024-03-26T01:00:28.481Z,64.41
2024-03-26T01:02:55.995Z,64.35
2024-03-26T01:05:23.660Z,64.37
2024-03-26T01:07:51.113Z,64.33
2024-03-26T01:10:18.580Z,64.25
2024-03-26T01:12:45.980Z,64.19
2024-03-26T01:15:13.499Z,64.19
2024-03-26T01:17:40.965Z,64.19
2024-03-26T01:20:08.842Z,64.13
2024-03-26T01:22:36.277Z,63.99
2024-03-26T01:25:04.154Z,64.05
2024-03-26T01:27:31.649Z,64.06
2024-03-26T01:29:59.263Z,63.75
2024-03-26T01:32:27.335Z,63.69
2024-03-26T01:34:54.890Z,63.62
2024-03-26T01:37:22.566Z,63.71
2024-03-26T01:39:49.905Z,63.75
2024-03-26T01:42:17.468Z,63.78
2024-03-26T01:44:45.652Z,63.69
2024-03-26T01:47:13.247Z,63.43
2024-03-26T01:49:40.762Z,63.53
2024-03-26T01:52:08.316Z,63.55
2024-03-26T01:54:35.777Z,63.43
2024-03-26T01:57:03.332Z,63.33
2024-03-26T01:59:30.898Z,63.26
2024-03-26T02:01:59.501Z,63.33
2024-03-26T02:04:26.945Z,63.46
2024-03-26T02:06:54.406Z,63.33
2024-03-26T02:09:22.160Z,63.21
2024-03-26T02:11:49.617Z,63.26
2024-03-26T02:14:18.203Z,63.29
2024-03-26T02:16:46.172Z,63.23
2024-03-26T02:19:14.548Z,63.09
2024-03-26T02:21:42.111Z,62.91
2024-03-26T02:24:09.773Z,62.85
2024-03-26T02:26:37.393Z,62.97
2024-03-26T02:29:04.790Z,62.74
2024-03-26T02:31:32.349Z,62.57
2024-03-26T02:33:59.807Z,62.45
2024-03-26T02:36:27.468Z,62.53
2024-03-26T02:38:54.924Z,62.55
2024-03-26T02:41:22.483Z,62.42
2024-03-26T02:43:49.942Z,62.36
2024-03-26T02:46:17.812Z,62.29
2024-03-26T02:48:45.267Z,62.42
2024-03-26T02:51:12.725Z,62.30
2024-03-26T02:53:40.389Z,62.11
2024-03-26T02:56:08.147Z,62.07
2024-03-26T02:58:35.484Z,62.15
2024-03-26T03:01:12.383Z,62.18
2024-03-26T03:03:39.950Z,61.97
2024-03-26T03:06:10.987Z,61.87
2024-03-26T03:08:38.872Z,61.82
2024-03-26T03:11:06.415Z,61.84
2024-03-26T03:13:33.971Z,61.76
2024-03-26T03:16:01.430Z,61.60
2024-03-26T03:18:28.789Z,61.56
2024-03-26T03:20:56.351Z,61.65
2024-03-26T03:23:23.805Z,61.63
2024-03-26T03:25:55.158Z,61.67
2024-03-26T03:28:22.825Z,61.70
2024-03-26T03:30:50.278Z,61.76
2024-03-26T03:33:17.731Z,61.78
2024-03-26T03:35:45.187Z,61.72
2024-03-26T03:38:12.593Z,61.61
2024-03-26T03:40:40.001Z,61.51
2024-03-26T03:43:07.455Z,61.60
2024-03-26T03:47:43.064Z,62.47
2024-03-26T03:50:10.584Z,61.59
2024-03-26T03:52:37.938Z,61.44
2024-03-26T03:55:05.890Z,61.36
2024-03-26T03:57:33.257Z,61.45
2024-03-26T04:00:01.974Z,61.49
2024-03-26T04:02:39.281Z,61.29
2024-03-26T04:05:07.304Z,61.25
2024-03-26T04:07:35.581Z,61.20
2024-03-26T04:10:04.311Z,61.01
2024-03-26T04:12:32.043Z,60.95
2024-03-26T04:14:59.565Z,60.78
2024-03-26T04:17:27.275Z,60.58
2024-03-26T04:20:03.220Z,60.58
2024-03-26T04:22:33.405Z,60.52
2024-03-26T04:25:01.505Z,60.41
2024-03-26T04:27:28.873Z,60.60
2024-03-26T04:29:56.423Z,60.41
2024-03-26T04:32:23.925Z,60.36
2024-03-26T04:34:51.436Z,60.00
2024-03-26T04:37:19.414Z,59.97
2024-03-26T04:39:47.477Z,60.06
2024-03-26T04:42:14.937Z,59.83
2024-03-26T04:44:42.339Z,59.78
2024-03-26T04:47:09.952Z,59.42
2024-03-26T04:49:37.363Z,59.44
2024-03-26T04:52:04.873Z,59.32
2024-03-26T04:54:32.280Z,59.38
2024-03-26T04:56:59.804Z,59.54
2024-03-26T04:59:27.291Z,59.19
2024-03-26T05:01:54.801Z,58.94
2024-03-26T05:04:22.871Z,59.18
2024-03-26T05:06:50.533Z,59.35
2024-03-26T05:09:17.991Z,59.50
2024-03-26T05:11:45.452Z,58.89
2024-03-26T05:14:13.053Z,58.71
2024-03-26T05:16:40.466Z,58.69
2024-03-26T05:19:07.927Z,58.67
2024-03-26T05:21:35.401Z,58.77
2024-03-26T05:24:14.209Z,58.70
2024-03-26T05:26:49.002Z,58.70
2024-03-26T05:29:22.606Z,58.87
2024-03-26T05:31:53.514Z,58.89
2024-03-26T05:34:25.664Z,58.76
2024-03-26T05:36:54.121Z,58.66
2024-03-26T05:39:22.745Z,58.53
2024-03-26T05:41:51.947Z,58.39
2024-03-26T05:44:19.320Z,58.09
2024-03-26T05:46:46.761Z,58.09
2024-03-26T05:49:15.242Z,57.86
2024-03-26T05:51:43.316Z,57.95
2024-03-26T05:54:10.746Z,57.78
2024-03-26T05:56:38.878Z,57.78
2024-03-26T05:59:06.479Z,57.71
2024-03-26T06:01:34.121Z,57.56
2024-03-26T06:04:02.786Z,57.60
2024-03-26T06:06:30.443Z,57.44
2024-03-26T06:08:57.844Z,57.42
2024-03-26T06:11:25.492Z,57.34
2024-03-26T06:13:52.945Z,57.27
2024-03-26T06:16:20.712Z,57.38
2024-03-26T06:18:48.173Z,57.51
2024-03-26T06:21:15.730Z,57.47
2024-03-26T06:23:43.903Z,57.37
2024-03-26T06:26:11.574Z,57.19
2024-03-26T06:28:39.122Z,57.28
2024-03-26T06:31:06.533Z,57.40
2024-03-26T06:33:34.042Z,57.16
2024-03-26T06:36:01.556Z,57.13
2024-03-26T06:38:29.209Z,57.37
2024-03-26T06:40:58.516Z,57.18
2024-03-26T06:43:25.966Z,56.90
2024-03-26T06:45:54.194Z,56.83
2024-03-26T06:48:21.654Z,56.74
2024-03-26T06:50:49.277Z,56.88
2024-03-26T06:53:16.714Z,56.53
2024-03-26T06:55:44.337Z,56.48
2024-03-26T06:58:11.744Z,56.14
2024-03-26T07:00:39.165Z,55.85
2024-03-26T07:03:07.577Z,55.91
2024-03-26T07:05:35.147Z,56.12
2024-03-26T07:08:03.873Z,55.82
2024-03-26T07:10:31.436Z,55.73
2024-03-26T07:12:59.099Z,55.52
2024-03-26T07:15:26.633Z,55.58
2024-03-26T07:17:58.597Z,55.43
2024-03-26T07:20:28.941Z,55.06
2024-03-26T07:23:00.578Z,55.37
2024-03-26T07:25:28.333Z,55.32
2024-03-26T07:27:58.297Z,54.68
2024-03-26T07:30:25.954Z,54.52
2024-03-26T07:32:53.358Z,54.02
2024-03-26T07:35:21.477Z,54.27
2024-03-26T07:37:50.201Z,54.05
2024-03-26T07:40:17.554Z,53.60
2024-03-26T07:42:45.274Z,53.34
2024-03-26T07:45:15.737Z,53.38
2024-03-26T07:47:43.452Z,53.51
2024-03-26T07:50:11.643Z,52.99
2024-03-26T07:52:39.204Z,52.39
2024-03-26T07:55:07.007Z,52.17
2024-03-26T07:57:34.908Z,51.91
2024-03-26T08:00:02.730Z,51.66
2024-03-26T08:02:38.983Z,52.13
2024-03-26T08:05:08.730Z,52.58
2024-03-26T08:07:38.608Z,51.81
2024-03-26T08:10:07.392Z,51.36
2024-03-26T08:12:35.467Z,51.34
2024-03-26T08:15:03.285Z,51.46
2024-03-26T08:17:31.921Z,51.61
2024-03-26T08:19:59.599Z,50.89
2024-03-26T08:22:27.332Z,50.48
2024-03-26T08:24:55.376Z,50.10
2024-03-26T08:27:22.908Z,50.03
2024-03-26T08:29:52.291Z,50.15
2024-03-26T08:32:19.964Z,50.27
2024-03-26T08:34:47.543Z,49.64
2024-03-26T08:37:15.251Z,49.30
2024-03-26T08:39:43.661Z,49.21
2024-03-26T08:42:12.629Z,49.59
2024-03-26T08:44:40.130Z,49.49
2024-03-26T08:47:07.947Z,48.86
2024-03-26T08:49:35.506Z,48.51
2024-03-26T08:52:03.273Z,48.82
2024-03-26T08:54:30.731Z,48.79
2024-03-26T08:56:58.350Z,48.65
2024-03-26T08:59:26.822Z,48.45
2024-03-26T09:01:54.330Z,48.31
2024-03-26T09:04:23.960Z,48.45
2024-03-26T09:06:52.939Z,48.21
2024-03-26T09:09:20.452Z,46.78
2024-03-26T09:11:50.923Z,46.36
2024-03-26T09:14:18.636Z,46.07
2024-03-26T09:16:46.493Z,45.95
2024-03-26T09:19:14.485Z,46.17
2024-03-26T09:21:43.971Z,45.41
2024-03-26T09:24:12.225Z,45.44
2024-03-26T09:26:39.967Z,45.75
2024-03-26T09:29:07.476Z,45.63
2024-03-26T09:31:35.188Z,45.33
2024-03-26T09:34:02.757Z,44.85
2024-03-26T09:36:30.309Z,44.62
2024-03-26T09:39:06.557Z,44.85
2024-03-26T09:41:37.479Z,45.17
2024-03-26T09:44:05.172Z,44.64
2024-03-26T09:46:37.440Z,43.65
2024-03-26T09:49:05.825Z,43.92
2024-03-26T09:51:33.995Z,43.93
2024-03-26T09:54:01.699Z,44.06
2024-03-26T09:56:29.425Z,44.20
2024-03-26T09:58:56.989Z,43.96
2024-03-26T10:01:26.137Z,44.14
2024-03-26T10:03:54.156Z,44.03
2024-03-26T10:06:21.864Z,44.16
2024-03-26T10:08:49.395Z,44.41
2024-03-26T10:11:16.760Z,44.68
2024-03-26T10:13:44.175Z,45.22
2024-03-26T10:16:11.832Z,45.37
2024-03-26T10:18:39.356Z,44.80
2024-03-26T10:21:07.888Z,44.54
2024-03-26T10:23:35.968Z,44.88
2024-03-26T10:26:03.619Z,44.52
2024-03-26T10:28:31.181Z,43.81
2024-03-26T10:30:58.853Z,43.63
2024-03-26T10:33:26.711Z,43.42
2024-03-26T10:35:55.911Z,43.46
2024-03-26T10:38:24.994Z,43.02
2024-03-26T10:41:11.200Z,43.45
2024-03-26T10:43:39.784Z,43.94
2024-03-26T10:46:08.424Z,43.28
2024-03-26T10:48:39.717Z,43.06
2024-03-26T10:51:12.102Z,43.07
2024-03-26T10:53:42.251Z,42.60
2024-03-26T10:56:10.317Z,42.89
2024-03-26T10:58:37.822Z,42.59
2024-03-26T11:01:06.332Z,42.64
2024-03-26T11:03:33.837Z,42.73
2024-03-26T11:06:05.477Z,42.62
2024-03-26T11:08:42.740Z,42.53
2024-03-26T11:11:14.299Z,42.77
2024-03-26T11:13:42.071Z,42.34
2024-03-26T11:16:11.007Z,42.29
2024-03-26T11:18:40.141Z,42.65
2024-03-26T11:21:09.653Z,42.16
2024-03-26T11:23:38.392Z,41.99
2024-03-26T11:26:06.092Z,41.62
2024-03-26T11:28:33.859Z,41.58
2024-03-26T11:31:02.650Z,42.03
2024-03-26T11:33:33.523Z,42.13
2024-03-26T11:36:03.124Z,42.13
2024-03-26T11:38:30.650Z,41.74
2024-03-26T11:40:58.819Z,41.76
2024-03-26T11:43:26.389Z,41.78
2024-03-26T11:45:59.442Z,41.62
2024-03-26T11:48:27.823Z,41.54
2024-03-26T11:50:57.218Z,41.36
2024-03-26T11:53:25.127Z,41.32
2024-03-26T11:55:55.262Z,40.92
2024-03-26T11:58:27.617Z,40.86
2024-03-26T12:00:57.909Z,40.55
2024-03-26T12:03:25.459Z,40.52
2024-03-26T12:05:53.272Z,40.67
2024-03-26T12:08:21.080Z,40.28
2024-03-26T12:10:48.700Z,39.96
2024-03-26T12:13:16.766Z,39.95
2024-03-26T12:15:44.345Z,39.39
2024-03-26T12:18:11.988Z,39.26
2024-03-26T12:20:39.398Z,39.10
2024-03-26T12:23:07.106Z,38.66
2024-03-26T12:25:34.722Z,38.75
2024-03-26T12:28:03.951Z,38.64
2024-03-26T12:30:35.379Z,38.33
2024-03-26T12:33:03.034Z,38.12
2024-03-26T12:35:31.406Z,38.17
2024-03-26T12:37:58.926Z,38.38
2024-03-26T12:40:26.594Z,38.26
2024-03-26T12:42:54.141Z,38.12
2024-03-26T12:45:21.766Z,37.38
2024-03-26T12:47:49.883Z,37.56
2024-03-26T12:50:17.435Z,37.31
2024-03-26T12:52:44.999Z,37.18
2024-03-26T12:55:14.347Z,37.59
2024-03-26T12:57:43.439Z,37.47
2024-03-26T13:00:11.669Z,37.26
2024-03-26T13:02:42.667Z,36.61
2024-03-26T13:05:12.027Z,36.75
2024-03-26T13:07:42.651Z,36.88
2024-03-26T13:10:13.140Z,36.79
2024-03-26T13:12:42.895Z,36.17
2024-03-26T13:15:13.681Z,36.16
2024-03-26T13:17:49.713Z,36.17
2024-03-26T13:20:17.887Z,35.41
2024-03-26T13:22:48.361Z,33.67
2024-03-26T13:25:18.599Z,32.08
2024-03-26T13:27:46.027Z,30.32
2024-03-26T13:30:13.747Z,28.33
2024-03-26T13:32:41.442Z,28.16
2024-03-26T13:35:10.603Z,26.80
2024-03-26T13:37:38.173Z,25.49
2024-03-26T13:40:09.526Z,25.19
2024-03-26T13:42:42.358Z,24.75
2024-03-26T13:45:10.932Z,24.48
2024-03-26T13:47:39.837Z,24.04
2024-03-26T13:50:08.193Z,23.50
2024-03-26T13:52:36.195Z,22.81
2024-03-26T13:55:05.694Z,22.54
2024-03-26T13:57:36.662Z,22.55
2024-03-26T14:00:11.934Z,22.78
2024-03-26T14:02:39.428Z,22.78
2024-03-26T14:05:09.497Z,22.55
2024-03-26T14:07:36.964Z,21.88
2024-03-26T14:10:06.637Z,21.68
2024-03-26T14:12:34.454Z,21.23
2024-03-26T14:15:02.016Z,20.85
2024-03-26T14:17:29.832Z,21.05
2024-03-26T14:19:57.392Z,21.38
2024-03-26T14:22:25.157Z,21.69
2024-03-26T14:24:53.099Z,21.75
2024-03-26T14:27:21.863Z,20.59
2024-03-26T14:29:49.712Z,20.71
2024-03-26T14:32:18.610Z,20.58
2024-03-26T14:34:46.196Z,20.65
2024-03-26T14:37:14.400Z,21.20
2024-03-26T14:39:41.920Z,21.20
2024-03-26T14:42:09.431Z,21.56
2024-03-26T14:44:38.012Z,21.36
2024-03-26T14:47:05.670Z,20.91
2024-03-26T14:49:33.328Z,20.93
2024-03-26T14:52:03.777Z,20.59
2024-03-26T14:54:40.753Z,20.39
2024-03-26T14:57:09.222Z,20.77
2024-03-26T14:59:37.595Z,20.78
2024-03-26T15:02:07.777Z,20.62
2024-03-26T15:04:36.955Z,20.55
2024-03-26T15:07:09.231Z,20.29
2024-03-26T15:09:36.961Z,20.38
2024-03-26T15:12:04.739Z,20.68
2024-03-26T15:14:32.233Z,21.18
2024-03-26T15:16:59.841Z,21.47
2024-03-26T15:19:27.364Z,21.46
2024-03-26T15:21:55.055Z,21.53
2024-03-26T15:24:23.099Z,21.43
2024-03-26T15:27:09.417Z,21.42
2024-03-26T15:29:58.391Z,21.46
2024-03-26T15:32:29.306Z,21.78
2024-03-26T15:34:57.101Z,21.87
2024-03-26T15:37:24.615Z,22.12
2024-03-26T15:39:52.522Z,22.45
2024-03-26T15:42:21.005Z,22.49
2024-03-26T15:44:48.583Z,22.90
2024-03-26T15:47:16.316Z,22.74
2024-03-26T15:49:47.881Z,22.83
2024-03-26T15:52:15.424Z,23.10
2024-03-26T15:54:43.074Z,23.46
2024-03-26T15:57:16.304Z,24.07
2024-03-26T15:59:45.030Z,24.69
2024-03-26T16:02:14.252Z,25.66
2024-03-26T16:05:54.864Z,27.19
2024-03-26T16:08:22.724Z,27.13
2024-03-26T16:11:12.308Z,27.85
2024-03-26T16:13:45.601Z,28.36
2024-03-26T16:16:13.823Z,28.87
2024-03-26T16:18:47.225Z,29.37
2024-03-26T16:21:16.685Z,29.84
2024-03-26T16:23:44.228Z,30.29
2024-03-26T16:26:15.245Z,30.63
2024-03-26T16:28:55.528Z,31.09
2024-03-26T16:31:27.533Z,31.73
2024-03-26T16:34:01.828Z,32.57
2024-03-26T16:36:30.305Z,33.18
2024-03-26T16:39:04.209Z,33.35
2024-03-26T16:41:36.052Z,33.07
2024-03-26T16:44:03.929Z,32.94
2024-03-26T16:46:31.336Z,33.22
2024-03-26T16:48:59.247Z,33.38
2024-03-26T16:51:26.911Z,33.43
2024-03-26T16:53:54.827Z,33.58
2024-03-26T16:56:22.442Z,33.71
2024-03-26T16:58:49.928Z,34.51
2024-03-26T17:01:17.567Z,35.38
2024-03-26T17:03:46.144Z,35.58
2024-03-26T17:06:14.099Z,36.29
2024-03-26T17:08:41.725Z,37.08
2024-03-26T17:11:09.606Z,37.60
2024-03-26T17:13:40.422Z,38.10
2024-03-26T17:16:07.911Z,38.19
2024-03-26T17:18:36.167Z,38.28
2024-03-26T17:21:05.260Z,38.99
2024-03-26T17:23:32.766Z,39.44
2024-03-26T17:26:01.105Z,39.85
2024-03-26T17:28:29.543Z,40.22
2024-03-26T17:30:57.185Z,40.79
2024-03-26T17:33:26.740Z,41.60
2024-03-26T17:35:54.350Z,42.04
2024-03-26T17:38:21.812Z,42.24
2024-03-26T17:40:49.274Z,42.63
2024-03-26T17:43:16.735Z,43.13
2024-03-26T17:45:44.297Z,43.63
2024-03-26T17:48:11.859Z,43.99
2024-03-26T17:50:39.359Z,44.44
2024-03-26T17:53:07.337Z,44.96
2024-03-26T17:55:35.881Z,45.40
2024-03-26T17:58:03.524Z,45.74
2024-03-26T18:00:31.087Z,46.32
2024-03-26T18:02:58.550Z,46.53
2024-03-26T18:05:26.004Z,46.78
2024-03-26T18:07:53.564Z,47.02
2024-03-26T18:10:22.144Z,47.25
2024-03-26T18:12:50.113Z,47.57
2024-03-26T18:15:17.682Z,47.76
2024-03-26T18:17:46.465Z,47.93
2024-03-26T18:20:14.023Z,48.26
2024-03-26T18:22:41.386Z,48.40
2024-03-26T18:25:09.536Z,48.74
2024-03-26T18:27:38.234Z,49.23
2024-03-26T18:30:06.345Z,49.61
2024-03-26T18:32:33.867Z,49.80
2024-03-26T18:35:01.736Z,50.04
2024-03-26T18:37:29.320Z,50.11
2024-03-26T18:39:56.860Z,50.13
2024-03-26T18:42:24.414Z,50.28
2024-03-26T18:44:52.078Z,50.39
2024-03-26T18:47:19.487Z,50.50
2024-03-26T18:49:48.038Z,50.79
2024-03-26T18:52:15.482Z,50.90
2024-03-26T18:54:43.053Z,51.14
2024-03-26T18:57:14.134Z,51.41
2024-03-26T18:59:41.705Z,51.43
2024-03-26T19:02:09.246Z,51.43
2024-03-26T19:04:36.757Z,51.46
2024-03-26T19:07:06.258Z,51.42
2024-03-26T19:09:33.823Z,51.44
2024-03-26T19:12:01.284Z,51.48
2024-03-26T19:14:28.840Z,51.50
2024-03-26T19:16:56.441Z,51.60
2024-03-26T19:19:25.297Z,51.66
2024-03-26T19:21:52.851Z,51.67
2024-03-26T19:24:20.304Z,51.76
2024-03-26T19:26:48.709Z,51.87
2024-03-26T19:29:16.654Z,51.99
2024-03-26T19:31:44.212Z,52.14
2024-03-26T19:34:12.005Z,52.44
2024-03-26T19:36:39.398Z,52.76
2024-03-26T19:39:06.999Z,52.87
2024-03-26T19:41:34.455Z,53.04
2024-03-26T19:44:02.017Z,53.05
2024-03-26T19:46:29.716Z,53.05
2024-03-26T19:48:57.438Z,53.11
2024-03-26T19:51:25.357Z,53.07
2024-03-26T19:53:53.379Z,53.21
2024-03-26T19:56:20.943Z,53.22
2024-03-26T19:58:48.445Z,53.29
2024-03-26T20:01:16.981Z,53.47
2024-03-26T20:03:44.646Z,53.65
2024-03-26T20:06:13.143Z,53.68
2024-03-26T20:08:44.098Z,54.01
2024-03-26T20:11:12.448Z,54.15
2024-03-26T20:13:40.838Z,54.18
2024-03-26T20:16:08.293Z,54.14
2024-03-26T20:18:36.045Z,54.30
2024-03-26T20:21:03.710Z,54.69
2024-03-26T20:23:31.988Z,54.80
2024-03-26T20:26:04.103Z,54.78
2024-03-26T20:28:32.271Z,54.86
2024-03-26T20:31:12.029Z,54.75
2024-03-26T20:33:40.401Z,54.58
2024-03-26T20:36:08.630Z,54.53
2024-03-26T20:38:36.140Z,54.56
2024-03-26T20:41:05.288Z,54.53
2024-03-26T20:43:33.762Z,54.55
2024-03-26T20:46:07.571Z,54.51
2024-03-26T20:48:35.224Z,54.62
2024-03-26T20:51:09.603Z,54.63
2024-03-26T20:53:37.260Z,54.83
2024-03-26T20:56:11.318Z,55.01
2024-03-26T20:58:38.993Z,55.18
2024-03-26T21:01:06.647Z,55.37
2024-03-26T21:03:36.570Z,55.44
2024-03-26T21:06:04.843Z,55.65
2024-03-26T21:08:32.344Z,55.66
2024-03-26T21:11:00.881Z,55.76
2024-03-26T21:13:28.326Z,55.96
2024-03-26T21:16:02.766Z,56.09
2024-03-26T21:18:30.605Z,56.18
2024-03-26T21:20:58.362Z,56.29
2024-03-26T21:23:25.958Z,56.31
2024-03-26T21:25:53.510Z,56.36
2024-03-26T21:28:21.271Z,56.27
2024-03-26T21:30:58.708Z,56.23
2024-03-26T21:33:26.236Z,56.06
2024-03-26T21:35:55.024Z,55.94
2024-03-26T21:38:22.471Z,55.90
2024-03-26T21:40:59.822Z,55.64
2024-03-26T21:43:27.418Z,55.68
2024-03-26T21:45:54.878Z,55.68
2024-03-26T21:48:23.084Z,55.61
2024-03-26T21:51:00.136Z,55.64
2024-03-26T21:53:28.107Z,55.56
2024-03-26T21:56:16.679Z,55.49
2024-03-26T21:58:44.225Z,55.63
2024-03-26T22:01:12.184Z,55.77
2024-03-26T22:03:39.651Z,55.90
2024-03-26T22:06:14.316Z,56.08
2024-03-26T22:08:42.265Z,56.16
2024-03-26T22:11:12.466Z,56.09
2024-03-26T22:13:43.400Z,56.07
2024-03-26T22:16:10.965Z,56.20
2024-03-26T22:18:38.524Z,56.30
2024-03-26T22:21:06.023Z,56.34
2024-03-26T22:23:33.536Z,56.45
2024-03-26T22:26:08.208Z,56.60
2024-03-26T22:28:36.000Z,56.87
2024-03-26T22:31:04.005Z,57.03
2024-03-26T22:33:31.492Z,57.20
2024-03-26T22:35:59.065Z,57.33
2024-03-26T22:38:26.489Z,57.30
2024-03-26T22:40:58.026Z,57.25
2024-03-26T22:43:25.737Z,57.17
2024-03-26T22:46:00.002Z,57.18
2024-03-26T22:48:27.971Z,57.11
2024-03-26T22:50:55.718Z,57.19
2024-03-26T22:53:23.733Z,57.23
2024-03-26T22:56:05.333Z,57.25
2024-03-26T22:58:34.266Z,57.48
2024-03-26T23:01:05.791Z,57.59
2024-03-26T23:03:33.608Z,57.67
2024-03-26T23:06:01.950Z,57.74
2024-03-26T23:08:29.454Z,57.88
2024-03-26T23:10:57.010Z,58.08
2024-03-26T23:13:25.087Z,58.24
2024-03-26T23:15:52.560Z,58.38
2024-03-26T23:18:20.717Z,58.50
2024-03-26T23:20:48.273Z,58.61
2024-03-26T23:23:17.086Z,58.60
2024-03-26T23:25:44.838Z,58.65
2024-03-26T23:28:12.600Z,58.67
2024-03-26T23:30:40.969Z,58.67
2024-03-26T23:33:08.436Z,58.58
2024-03-26T23:35:36.092Z,58.43
2024-03-26T23:38:04.008Z,58.51
2024-03-26T23:40:31.520Z,58.65
2024-03-26T23:42:59.229Z,58.71
2024-03-26T23:45:29.451Z,58.59
2024-03-26T23:47:57.103Z,58.57
2024-03-26T23:50:25.137Z,58.57
2024-03-26T23:52:55.886Z,58.44
2024-03-26T23:55:27.810Z,58.40
2024-03-26T23:58:04.881Z,58.40
